createdAt,value
2022-12-08T00:02:13.936Z,19.30
2022-12-08T00:07:28.296Z,20.10
2022-12-08T00:12:26.228Z,16.05
2022-12-08T00:17:23.337Z,16.08
2022-12-08T00:22:21.726Z,17.83
2022-12-08T00:27:18.660Z,17.52
2022-12-08T00:32:16.496Z,18.15
2022-12-08T00:37:13.876Z,17.15
2022-12-08T00:42:13.779Z,18.70
2022-12-08T00:47:11.298Z,20.80
2022-12-08T00:52:09.031Z,18.65
2022-12-08T00:57:06.057Z,18.63
2022-12-08T01:02:03.159Z,17.48
2022-12-08T01:07:00.369Z,18.00
2022-12-08T01:11:58.422Z,17.77
2022-12-08T01:16:55.760Z,16.73
2022-12-08T01:21:53.117Z,19.92
2022-12-08T01:26:51.452Z,19.92
2022-12-08T01:31:49.397Z,17.27
2022-12-08T01:36:47.445Z,18.17
2022-12-08T01:41:45.555Z,19.95
2022-12-08T01:46:44.520Z,16.85
2022-12-08T01:51:49.404Z,17.35
2022-12-08T01:56:56.459Z,18.90
2022-12-08T02:01:53.663Z,19.08
2022-12-08T02:06:52.939Z,18.20
2022-12-08T02:11:59.728Z,18.38
2022-12-08T02:17:04.627Z,17.92
2022-12-08T02:22:11.815Z,19.45
2022-12-08T02:27:38.506Z,17.75
2022-12-08T02:33:21.177Z,18.23
2022-12-08T02:38:25.614Z,19.10
2022-12-08T02:43:29.744Z,18.55
2022-12-08T02:48:27.451Z,18.77
2022-12-08T02:53:30.961Z,18.15
2022-12-08T02:58:43.191Z,16.90
2022-12-08T03:03:48.082Z,18.63
2022-12-08T03:08:51.585Z,17.83
2022-12-08T03:13:52.750Z,18.48
2022-12-08T03:18:54.862Z,20.73
2022-12-08T03:23:55.227Z,17.88
2022-12-08T03:28:52.800Z,16.80
2022-12-08T03:33:52.666Z,16.23
2022-12-08T03:38:53.596Z,15.52
2022-12-08T03:43:52.702Z,17.38
2022-12-08T03:48:52.019Z,18.27
2022-12-08T03:53:49.994Z,16.95
2022-12-08T03:58:48.052Z,15.77
2022-12-08T04:03:45.196Z,19.95
2022-12-08T04:08:42.713Z,17.48
2022-12-08T04:13:41.577Z,15.60
2022-12-08T04:18:39.451Z,15.25
2022-12-08T04:23:36.609Z,21.42
2022-12-08T04:28:34.032Z,17.42
2022-12-08T04:33:31.348Z,19.23
2022-12-08T04:38:29.498Z,17.08
2022-12-08T04:43:29.929Z,16.33
2022-12-08T04:48:27.165Z,16.73
2022-12-08T04:53:26.110Z,14.70
2022-12-08T04:58:23.924Z,15.60
2022-12-08T05:03:26.888Z,13.60
2022-12-08T05:08:25.928Z,12.70
2022-12-08T05:13:38.339Z,13.70
2022-12-08T05:18:36.547Z,14.02
2022-12-08T05:23:34.049Z,12.18
2022-12-08T05:28:41.779Z,13.57
2022-12-08T05:33:42.502Z,13.18
2022-12-08T05:38:40.570Z,12.23
2022-12-08T05:43:38.770Z,11.10
2022-12-08T05:48:37.977Z,11.93
2022-12-08T05:53:35.111Z,14.15
2022-12-08T05:58:32.643Z,12.93
2022-12-08T06:03:30.726Z,11.60
2022-12-08T06:08:28.170Z,13.30
2022-12-08T06:13:25.111Z,14.05
2022-12-08T06:18:22.146Z,13.35
2022-12-08T06:23:20.462Z,12.10
2022-12-08T06:28:17.392Z,11.23
2022-12-08T06:33:17.222Z,11.90
2022-12-08T06:38:17.416Z,11.68
2022-12-08T06:43:15.547Z,10.23
2022-12-08T06:48:22.022Z,10.80
2022-12-08T06:53:22.500Z,11.82
2022-12-08T06:58:24.644Z,16.05
2022-12-08T07:03:21.680Z,14.13
2022-12-08T07:08:23.207Z,14.95
2022-12-08T07:13:28.750Z,16.02
2022-12-08T07:18:26.423Z,14.82
2022-12-08T07:23:27.369Z,16.10
2022-12-08T07:28:28.143Z,18.30
2022-12-08T07:33:26.328Z,13.60
2022-12-08T07:38:24.577Z,16.23
2022-12-08T07:43:23.031Z,19.15
2022-12-08T07:48:25.905Z,16.33
2022-12-08T07:53:23.364Z,17.40
2022-12-08T07:58:25.533Z,17.58
2022-12-08T08:03:24.138Z,17.30
2022-12-08T08:08:22.272Z,17.73
2022-12-08T08:13:22.111Z,16.92
2022-12-08T08:25:07.595Z,17.98
2022-12-08T08:30:06.987Z,17.75
2022-12-08T08:35:06.281Z,17.10
2022-12-08T08:40:04.701Z,16.05
2022-12-08T08:45:04.245Z,16.52
2022-12-08T08:50:04.630Z,16.02
2022-12-08T08:55:02.125Z,17.02
2022-12-08T09:00:10.690Z,15.50
2022-12-08T09:05:08.890Z,16.00
2022-12-08T09:10:08.876Z,20.45
2022-12-08T09:15:11.129Z,18.30
2022-12-08T09:20:10.008Z,16.42
2022-12-08T09:25:08.671Z,22.77
2022-12-08T09:30:12.483Z,23.20
2022-12-08T09:35:20.665Z,21.98
2022-12-08T09:40:22.678Z,23.05
2022-12-08T09:45:23.793Z,24.00
2022-12-08T09:50:31.113Z,24.77
2022-12-08T09:55:41.843Z,26.50
2022-12-08T10:00:47.623Z,22.63
2022-12-08T10:05:52.156Z,25.40
2022-12-08T10:10:57.366Z,31.90
2022-12-08T10:16:07.185Z,42.28
2022-12-08T10:21:16.977Z,34.25
2022-12-08T10:26:18.911Z,27.92
2022-12-08T10:31:21.011Z,29.13
2022-12-08T10:36:18.487Z,28.23
2022-12-08T10:41:17.564Z,21.20
2022-12-08T10:46:18.399Z,24.23
2022-12-08T10:51:24.099Z,21.08
2022-12-08T10:56:28.554Z,28.48
2022-12-08T11:01:34.547Z,25.50
2022-12-08T11:06:34.730Z,24.10
2022-12-08T11:11:43.718Z,27.80
2022-12-08T11:16:43.178Z,26.23
2022-12-08T11:21:42.551Z,29.13
2022-12-08T11:26:41.758Z,30.42
2022-12-08T11:31:45.675Z,31.13
2022-12-08T11:36:43.010Z,27.88
2022-12-08T11:41:42.696Z,34.28
2022-12-08T11:46:46.522Z,31.02
2022-12-08T11:51:51.845Z,31.40
2022-12-08T11:56:54.405Z,37.33
2022-12-08T12:01:52.711Z,38.15
2022-12-08T12:07:21.650Z,36.58
2022-12-08T12:12:39.972Z,38.15
2022-12-08T12:17:45.079Z,26.77
2022-12-08T12:22:46.908Z,29.57
2022-12-08T12:27:45.535Z,27.15
2022-12-08T12:32:51.536Z,28.60
2022-12-08T12:37:49.280Z,29.20
2022-12-08T12:42:48.592Z,32.67
2022-12-08T12:47:54.061Z,31.63
2022-12-08T12:52:53.810Z,29.65
2022-12-08T12:57:52.910Z,32.28
2022-12-08T13:02:52.281Z,32.13
2022-12-08T13:07:53.173Z,30.50
2022-12-08T13:13:07.519Z,28.45
2022-12-08T13:18:06.431Z,24.85
2022-12-08T13:23:43.156Z,23.70
2022-12-08T13:29:13.580Z,24.65
2022-12-08T13:34:16.969Z,25.55
2022-12-08T13:39:21.738Z,24.30
2022-12-08T14:00:35.448Z,21.15
2022-12-08T14:06:11.170Z,22.83
2022-12-08T14:11:02.538Z,23.05
2022-12-08T14:15:59.893Z,20.42
2022-12-08T14:21:21.240Z,18.63
2022-12-08T14:26:18.673Z,17.98
2022-12-08T14:31:17.298Z,18.38
2022-12-08T14:36:20.397Z,16.40
2022-12-08T14:41:26.700Z,17.02
2022-12-08T14:46:23.787Z,15.15
2022-12-08T14:51:27.130Z,16.67
2022-12-08T14:56:28.207Z,15.88
2022-12-08T15:01:26.157Z,17.40
2022-12-08T15:06:23.998Z,15.02
2022-12-08T15:11:34.681Z,13.05
2022-12-08T15:16:39.092Z,14.23
2022-12-08T15:21:42.551Z,14.07
2022-12-08T15:26:42.183Z,15.60
2022-12-08T15:31:39.455Z,15.32
2022-12-08T15:36:40.814Z,16.13
2022-12-08T15:41:39.917Z,16.17
2022-12-08T15:46:41.292Z,15.88
2022-12-08T15:51:41.827Z,15.85
2022-12-08T15:57:17.502Z,19.00
2022-12-08T16:02:06.237Z,14.88
2022-12-08T16:07:22.286Z,16.80
2022-12-08T16:13:48.191Z,19.83
2022-12-08T16:18:01.867Z,15.60
2022-12-08T16:23:13.354Z,13.88
2022-12-08T16:28:52.837Z,15.25
2022-12-08T16:33:39.254Z,14.93
2022-12-08T16:38:37.380Z,14.18
2022-12-08T16:43:36.038Z,15.40
2022-12-08T16:48:33.153Z,14.88
2022-12-08T16:53:33.021Z,16.90
2022-12-08T16:58:32.398Z,19.67
2022-12-08T17:03:37.530Z,17.77
2022-12-08T17:08:34.716Z,19.10
2022-12-08T17:13:35.620Z,17.30
2022-12-08T17:18:34.281Z,16.65
2022-12-08T17:23:33.372Z,20.05
2022-12-08T17:28:58.753Z,20.08
2022-12-08T17:33:52.431Z,39.80
2022-12-08T17:38:49.563Z,23.35
2022-12-08T17:43:49.631Z,23.73
2022-12-08T17:48:49.144Z,24.60
2022-12-08T17:53:47.653Z,26.15
2022-12-08T17:59:03.118Z,23.08
2022-12-08T18:04:02.248Z,23.30
2022-12-08T18:09:00.860Z,31.05
2022-12-08T18:13:59.762Z,24.38
2022-12-08T18:18:56.730Z,21.80
2022-12-08T18:23:57.558Z,26.63
2022-12-08T18:29:03.902Z,21.65
2022-12-08T18:34:01.843Z,27.55
2022-12-08T18:38:59.109Z,22.92
2022-12-08T18:43:57.309Z,25.08
2022-12-08T18:48:55.306Z,24.10
2022-12-08T18:53:53.169Z,29.17
2022-12-08T18:58:50.309Z,23.90
2022-12-08T19:04:12.146Z,24.30
2022-12-08T19:09:06.053Z,22.40
2022-12-08T19:14:05.397Z,22.35
2022-12-08T19:19:03.077Z,21.88
2022-12-08T19:24:01.387Z,21.00
2022-12-08T19:29:02.135Z,22.42
2022-12-08T19:34:01.139Z,18.30
2022-12-08T19:39:20.781Z,21.40
2022-12-08T19:44:38.711Z,19.35
2022-12-08T19:49:36.132Z,24.42
2022-12-08T19:54:33.517Z,22.92
2022-12-08T19:59:36.097Z,25.02
2022-12-08T20:04:36.821Z,23.40
2022-12-08T20:09:39.712Z,23.05
2022-12-08T20:14:47.159Z,26.92
2022-12-08T20:19:44.255Z,24.30
2022-12-08T20:24:41.363Z,20.02
2022-12-08T20:29:41.035Z,19.77
2022-12-08T20:34:39.095Z,20.85
2022-12-08T20:39:40.875Z,21.23
2022-12-08T20:44:43.589Z,22.17
2022-12-08T20:49:40.954Z,21.70
2022-12-08T20:54:38.956Z,20.33
2022-12-08T20:59:54.558Z,19.73
2022-12-08T21:04:53.001Z,18.77
2022-12-08T21:09:52.041Z,17.13
2022-12-08T21:14:50.606Z,16.92
2022-12-08T21:19:47.935Z,16.17
2022-12-08T21:24:45.808Z,16.60
2022-12-08T21:29:43.692Z,17.48
2022-12-08T21:34:43.660Z,15.90
2022-12-08T21:39:41.240Z,16.00
2022-12-08T21:44:38.698Z,15.50
2022-12-08T21:49:35.965Z,14.95
2022-12-08T21:54:33.759Z,15.48
2022-12-08T21:59:30.933Z,14.65
2022-12-08T22:04:28.110Z,15.48
2022-12-08T22:09:25.597Z,19.73
2022-12-08T22:14:23.437Z,18.88
2022-12-08T22:19:20.643Z,17.95
2022-12-08T22:24:17.939Z,18.05
2022-12-08T22:29:17.527Z,18.98
2022-12-08T22:34:15.432Z,19.77
2022-12-08T22:39:12.669Z,19.25
2022-12-08T22:44:09.790Z,19.58
2022-12-08T22:49:06.911Z,19.00
2022-12-08T22:54:05.973Z,18.17
2022-12-08T22:59:04.036Z,20.00
2022-12-08T23:04:02.191Z,19.10
2022-12-08T23:09:08.120Z,20.33
2022-12-08T23:14:05.450Z,22.63
2022-12-08T23:19:02.717Z,20.10
2022-12-08T23:24:00.595Z,18.30
2022-12-08T23:28:59.686Z,18.58
2022-12-08T23:33:56.930Z,19.02
2022-12-08T23:38:54.719Z,17.90
2022-12-08T23:43:52.069Z,16.90
2022-12-08T23:48:49.935Z,15.43
2022-12-08T23:53:47.084Z,15.15
2022-12-08T23:58:44.669Z,15.52
